createdAt,value
2022-09-11T00:00:29.446Z,39.45
2022-09-11T00:02:57.911Z,39.05
2022-09-11T00:05:25.219Z,40.47
2022-09-11T00:07:51.249Z,39.78
2022-09-11T00:10:17.072Z,39.10
2022-09-11T00:12:42.846Z,38.92
2022-09-11T00:15:09.560Z,40.42
2022-09-11T00:17:35.461Z,38.65
2022-09-11T00:20:02.099Z,38.70
2022-09-11T00:22:27.874Z,39.15
2022-09-11T00:24:54.380Z,38.38
2022-09-11T00:27:20.691Z,38.33
2022-09-11T00:29:46.483Z,39.83
2022-09-11T00:32:12.225Z,39.50
2022-09-11T00:34:38.461Z,39.80
2022-09-11T00:37:04.751Z,40.72
2022-09-11T00:39:30.536Z,39.90
2022-09-11T00:41:57.564Z,39.63
2022-09-11T00:44:23.893Z,39.95
2022-09-11T00:46:52.949Z,38.38
2022-09-11T00:49:34.047Z,39.72
2022-09-11T00:52:09.005Z,40.72
2022-09-11T00:54:49.203Z,39.03
2022-09-11T00:57:15.813Z,41.22
2022-09-11T00:59:44.279Z,41.13
2022-09-11T01:02:12.972Z,40.97
2022-09-11T01:04:39.384Z,41.70
2022-09-11T01:07:05.240Z,43.28
2022-09-11T01:09:32.759Z,44.13
2022-09-11T01:12:18.975Z,45.75
2022-09-11T01:15:05.013Z,46.30
2022-09-11T01:17:43.324Z,44.72
2022-09-11T01:20:27.425Z,45.33
2022-09-11T01:23:35.099Z,46.85
2022-09-11T01:26:38.194Z,43.67
2022-09-11T01:29:06.909Z,45.45
2022-09-11T01:32:11.010Z,45.50
2022-09-11T01:34:46.514Z,45.30
2022-09-11T01:37:20.609Z,46.05
2022-09-11T01:39:56.309Z,42.55
2022-09-11T01:42:26.503Z,43.08
2022-09-11T01:44:55.533Z,43.53
2022-09-11T01:47:22.493Z,44.70
2022-09-11T01:50:03.149Z,44.38
2022-09-11T01:52:34.022Z,42.60
2022-09-11T01:55:08.839Z,44.45
2022-09-11T01:57:37.073Z,47.03
2022-09-11T02:00:08.160Z,47.40
2022-09-11T02:02:38.159Z,46.78
2022-09-11T02:05:10.036Z,45.58
2022-09-11T02:08:08.014Z,45.58
2022-09-11T02:10:51.274Z,44.97
2022-09-11T02:14:06.588Z,45.35
2022-09-11T02:16:41.881Z,43.60
2022-09-11T02:19:11.768Z,42.53
2022-09-11T02:21:37.731Z,44.92
2022-09-11T02:24:04.053Z,44.03
2022-09-11T02:26:35.283Z,43.60
2022-09-11T02:29:01.168Z,42.72
2022-09-11T02:31:27.586Z,43.63
2022-09-11T02:33:53.392Z,43.08
2022-09-11T02:36:31.128Z,43.08
2022-09-11T02:39:34.350Z,46.65
2022-09-11T02:42:23.784Z,43.55
2022-09-11T02:45:05.313Z,48.90
2022-09-11T02:47:53.944Z,44.08
2022-09-11T02:51:05.104Z,46.70
2022-09-11T02:53:48.480Z,44.92
2022-09-11T02:56:23.000Z,46.25
2022-09-11T02:58:54.879Z,43.13
2022-09-11T03:01:21.880Z,44.80
2022-09-11T03:03:47.825Z,42.80
2022-09-11T03:06:17.660Z,44.30
2022-09-11T03:08:43.828Z,46.60
2022-09-11T03:11:09.774Z,46.08
2022-09-11T03:13:37.301Z,46.60
2022-09-11T03:16:04.301Z,46.60
2022-09-11T03:18:30.795Z,45.67
2022-09-11T03:20:56.625Z,46.67
2022-09-11T03:23:22.689Z,45.42
2022-09-11T03:25:48.629Z,45.80
2022-09-11T03:28:14.519Z,46.60
2022-09-11T03:30:40.863Z,46.33
2022-09-11T03:33:08.124Z,48.55
2022-09-11T03:35:34.526Z,45.30
2022-09-11T03:38:00.619Z,48.75
2022-09-11T03:40:26.435Z,48.05
2022-09-11T03:42:52.389Z,47.42
2022-09-11T03:45:18.889Z,46.70
2022-09-11T03:47:44.956Z,47.70
2022-09-11T03:50:11.404Z,46.47
2022-09-11T03:52:38.348Z,47.45
2022-09-11T03:55:05.285Z,47.50
2022-09-11T03:57:34.472Z,46.63
2022-09-11T04:00:03.199Z,47.97
2022-09-11T04:02:29.107Z,47.13
2022-09-11T04:04:54.910Z,49.63
2022-09-11T04:07:21.749Z,48.05
2022-09-11T04:09:47.600Z,48.05
2022-09-11T04:12:13.427Z,50.17
2022-09-11T04:14:39.174Z,50.85
2022-09-11T04:17:07.383Z,52.13
2022-09-11T04:19:36.241Z,49.90
2022-09-11T04:22:03.228Z,49.97
2022-09-11T04:24:29.030Z,49.67
2022-09-11T04:26:59.944Z,47.83
2022-09-11T04:29:27.433Z,50.42
2022-09-11T04:31:54.165Z,48.63
2022-09-11T04:34:19.992Z,48.75
2022-09-11T04:36:45.834Z,48.55
2022-09-11T04:39:11.707Z,49.30
2022-09-11T04:41:37.559Z,49.28
2022-09-11T04:44:05.409Z,48.20
2022-09-11T04:46:31.797Z,48.75
2022-09-11T04:49:01.562Z,50.95
2022-09-11T04:51:31.343Z,52.55
2022-09-11T04:53:58.082Z,49.67
2022-09-11T04:56:28.937Z,48.22
2022-09-11T04:58:57.227Z,51.15
2022-09-11T05:01:24.667Z,50.75
2022-09-11T05:03:51.673Z,52.28
2022-09-11T05:06:17.624Z,51.78
2022-09-11T05:08:44.832Z,53.03
2022-09-11T05:11:15.918Z,52.35
2022-09-11T05:13:42.888Z,52.67
2022-09-11T05:16:11.731Z,49.30
2022-09-11T05:18:39.592Z,49.70
2022-09-11T05:21:09.128Z,51.90
2022-09-11T05:23:35.039Z,50.97
2022-09-11T05:26:03.832Z,52.60
2022-09-11T05:28:30.441Z,50.30
2022-09-11T05:30:57.089Z,51.13
2022-09-11T05:33:24.922Z,49.80
2022-09-11T05:35:54.698Z,51.28
2022-09-11T05:38:21.787Z,48.17
2022-09-11T05:40:50.539Z,48.15
2022-09-11T05:43:19.009Z,47.03
2022-09-11T05:45:53.899Z,47.08
2022-09-11T05:48:19.762Z,45.40
2022-09-11T05:50:52.283Z,44.58
2022-09-11T05:53:19.856Z,45.25
2022-09-11T05:55:46.549Z,45.35
2022-09-11T05:58:13.289Z,44.22
2022-09-11T06:00:40.297Z,45.30
2022-09-11T06:03:07.174Z,45.42
2022-09-11T06:05:33.539Z,44.53
2022-09-11T06:08:00.720Z,46.58
2022-09-11T06:10:26.926Z,44.70
2022-09-11T06:12:52.751Z,44.08
2022-09-11T06:15:43.016Z,45.10
2022-09-11T06:20:35.092Z,44.65
2022-09-11T06:23:00.970Z,43.58
2022-09-11T06:25:26.958Z,42.45
2022-09-11T06:27:52.758Z,42.70
2022-09-11T06:30:18.614Z,43.55
2022-09-11T06:32:48.033Z,44.03
2022-09-11T06:35:13.928Z,43.63
2022-09-11T06:37:39.735Z,43.30
2022-09-11T06:40:06.208Z,43.45
2022-09-11T06:42:32.478Z,42.45
2022-09-11T06:44:58.313Z,41.30
2022-09-11T06:47:24.129Z,40.10
2022-09-11T06:49:50.518Z,40.95
2022-09-11T06:52:16.357Z,41.33
2022-09-11T06:54:42.186Z,42.13
2022-09-11T06:57:08.078Z,41.33
2022-09-11T06:59:33.894Z,40.00
2022-09-11T07:02:00.025Z,40.75
2022-09-11T07:04:26.376Z,40.53
2022-09-11T07:06:52.249Z,38.78
2022-09-11T07:09:18.088Z,37.42
2022-09-11T07:11:46.078Z,39.08
2022-09-11T07:14:11.874Z,36.80
2022-09-11T07:16:41.510Z,35.55
2022-09-11T07:19:08.809Z,35.47
2022-09-11T07:21:34.823Z,37.38
2022-09-11T07:24:00.945Z,36.72
2022-09-11T07:26:29.142Z,36.40
2022-09-11T07:28:56.822Z,37.25
2022-09-11T07:31:32.076Z,35.25
2022-09-11T07:33:58.856Z,36.25
2022-09-11T07:36:33.497Z,36.60
2022-09-11T07:38:59.938Z,35.90
2022-09-11T07:41:27.300Z,34.80
2022-09-11T07:43:55.323Z,36.25
2022-09-11T07:46:23.759Z,34.90
2022-09-11T07:48:49.897Z,34.70
2022-09-11T07:51:20.423Z,34.25
2022-09-11T07:53:49.984Z,32.70
2022-09-11T07:56:19.038Z,30.95
2022-09-11T07:58:45.645Z,29.85
2022-09-11T08:01:14.816Z,30.75
2022-09-11T08:03:44.296Z,30.10
2022-09-11T08:06:21.393Z,31.15
2022-09-11T08:08:52.512Z,30.20
2022-09-11T08:11:18.977Z,27.98
2022-09-11T08:13:52.857Z,29.33
2022-09-11T08:16:20.782Z,28.00
2022-09-11T08:18:48.126Z,29.05
2022-09-11T08:21:14.441Z,27.70
2022-09-11T08:23:42.184Z,26.95
2022-09-11T08:26:13.567Z,29.90
2022-09-11T08:28:44.231Z,29.60
2022-09-11T08:31:12.096Z,29.95
2022-09-11T08:33:38.281Z,29.55
2022-09-11T08:36:07.432Z,29.08
2022-09-11T08:38:33.757Z,26.90
2022-09-11T08:41:10.967Z,26.15
2022-09-11T08:43:45.482Z,24.58
2022-09-11T08:46:11.846Z,24.30
2022-09-11T08:49:00.379Z,24.10
2022-09-11T08:51:26.497Z,24.20
2022-09-11T08:53:55.439Z,27.40
2022-09-11T08:56:23.616Z,30.00
2022-09-11T08:58:50.264Z,31.85
2022-09-11T09:01:28.320Z,30.95
2022-09-11T09:04:17.340Z,28.90
2022-09-11T09:06:49.993Z,29.50
2022-09-11T09:09:34.988Z,31.17
2022-09-11T09:12:15.789Z,28.08
2022-09-11T09:15:01.781Z,27.48
2022-09-11T09:17:44.671Z,27.65
2022-09-11T09:20:15.732Z,25.27
2022-09-11T09:23:16.741Z,27.35
2022-09-11T09:25:42.947Z,24.63
2022-09-11T09:28:21.264Z,24.20
2022-09-11T09:30:52.740Z,23.90
2022-09-11T09:33:34.535Z,23.70
2022-09-11T09:36:25.624Z,23.30
2022-09-11T09:38:53.012Z,22.73
2022-09-11T09:41:43.123Z,22.33
2022-09-11T09:44:42.583Z,23.00
2022-09-11T09:47:12.652Z,20.55
2022-09-11T09:49:39.317Z,19.45
2022-09-11T09:52:18.537Z,18.33
2022-09-11T09:55:05.758Z,18.35
2022-09-11T09:57:34.239Z,18.10
2022-09-11T10:00:15.516Z,18.17
2022-09-11T10:02:57.340Z,17.55
2022-09-11T10:05:46.291Z,17.80
2022-09-11T10:08:26.914Z,17.17
2022-09-11T10:10:58.116Z,16.08
2022-09-11T10:13:27.695Z,16.52
2022-09-11T10:15:59.843Z,14.05
2022-09-11T10:18:25.655Z,11.82
2022-09-11T10:20:51.495Z,16.17
2022-09-11T10:23:26.617Z,17.85
2022-09-11T10:25:53.393Z,18.20
2022-09-11T10:28:32.065Z,17.63
2022-09-11T10:31:01.766Z,16.02
2022-09-11T10:33:30.421Z,15.10
2022-09-11T10:35:59.645Z,15.27
2022-09-11T10:38:41.182Z,12.02
2022-09-11T10:41:14.252Z,11.55
2022-09-11T10:43:51.706Z,13.05
2022-09-11T10:46:17.509Z,11.65
2022-09-11T10:48:51.157Z,10.68
2022-09-11T10:51:17.689Z,11.32
2022-09-11T10:54:01.526Z,10.02
2022-09-11T10:56:27.454Z,9.32
2022-09-11T10:59:01.345Z,8.98
2022-09-11T11:01:27.204Z,8.95
2022-09-11T11:03:55.961Z,9.85
2022-09-11T11:06:55.560Z,9.98
2022-09-11T11:09:49.668Z,10.57
2022-09-11T11:12:34.240Z,9.25
2022-09-11T11:15:05.931Z,10.00
2022-09-11T11:17:47.942Z,10.48
2022-09-11T11:20:59.409Z,9.13
2022-09-11T11:23:48.477Z,7.78
2022-09-11T11:26:32.455Z,7.97
2022-09-11T11:29:00.989Z,8.75
2022-09-11T11:31:36.193Z,8.27
2022-09-11T11:37:15.636Z,6.88
2022-09-11T11:40:19.179Z,5.80
2022-09-11T11:42:56.394Z,5.43
2022-09-11T11:45:27.100Z,4.93
2022-09-11T11:47:54.856Z,5.00
2022-09-11T11:50:27.432Z,5.70
2022-09-11T11:53:34.578Z,8.00
2022-09-11T11:56:09.381Z,8.65
2022-09-11T11:58:48.468Z,8.95
2022-09-11T12:01:23.599Z,9.48
2022-09-11T12:03:58.846Z,7.28
2022-09-11T12:06:26.367Z,8.05
2022-09-11T12:08:52.297Z,7.82
2022-09-11T12:11:27.947Z,7.70
2022-09-11T12:13:54.783Z,7.50
2022-09-11T12:16:31.446Z,6.82
2022-09-11T12:19:14.602Z,6.03
2022-09-11T12:21:53.738Z,5.43
2022-09-11T12:24:22.328Z,5.50
2022-09-11T12:27:43.500Z,6.63
2022-09-11T12:30:21.550Z,6.43
2022-09-11T12:32:50.465Z,7.32
2022-09-11T12:35:34.422Z,7.25
2022-09-11T12:38:19.413Z,7.97
2022-09-11T12:40:56.807Z,8.25
2022-09-11T12:43:34.481Z,8.90
2022-09-11T12:46:08.140Z,9.13
2022-09-11T12:48:42.102Z,9.45
2022-09-11T12:51:29.807Z,9.15
2022-09-11T12:54:17.665Z,11.45
2022-09-11T12:56:51.236Z,12.13
2022-09-11T12:59:29.427Z,11.90
2022-09-11T13:01:56.723Z,10.50
2022-09-11T13:04:30.415Z,10.57
2022-09-11T13:06:59.949Z,11.00
2022-09-11T13:09:37.680Z,10.20
2022-09-11T13:12:25.015Z,10.98
2022-09-11T13:14:52.773Z,12.10
2022-09-11T13:17:33.876Z,12.00
2022-09-11T13:20:02.655Z,11.88
2022-09-11T13:22:34.032Z,13.73
2022-09-11T13:25:19.102Z,12.90
2022-09-11T13:27:49.317Z,13.50
2022-09-11T13:30:18.625Z,13.15
2022-09-11T13:32:50.870Z,12.57
2022-09-11T13:35:26.466Z,13.75
2022-09-11T13:38:01.803Z,12.70
2022-09-11T13:40:40.946Z,13.70
2022-09-11T13:43:07.288Z,11.70
2022-09-11T13:45:33.247Z,12.98
2022-09-11T13:47:59.270Z,13.80
2022-09-11T13:50:25.523Z,13.73
2022-09-11T13:52:53.235Z,14.95
2022-09-11T13:55:29.259Z,15.23
2022-09-11T13:58:00.984Z,15.10
2022-09-11T14:00:51.111Z,13.75
2022-09-11T14:03:27.356Z,14.85
2022-09-11T14:05:56.196Z,15.63
2022-09-11T14:08:31.730Z,14.80
2022-09-11T14:11:11.635Z,14.57
2022-09-11T14:13:50.308Z,14.73
2022-09-11T14:16:16.254Z,14.70
2022-09-11T14:19:05.457Z,14.52
2022-09-11T14:21:43.077Z,13.93
2022-09-11T14:24:32.391Z,14.45
2022-09-11T14:27:00.962Z,15.25
2022-09-11T14:29:32.555Z,15.10
2022-09-11T14:32:31.340Z,15.20
2022-09-11T14:34:57.816Z,14.15
2022-09-11T14:37:26.357Z,14.95
2022-09-11T14:39:56.048Z,13.98
2022-09-11T14:42:26.201Z,15.50
2022-09-11T14:44:52.674Z,15.32
2022-09-11T14:47:27.180Z,15.77
2022-09-11T14:49:56.351Z,14.63
2022-09-11T14:52:25.165Z,14.75
2022-09-11T14:54:51.705Z,14.30
2022-09-11T14:57:21.791Z,13.25
2022-09-11T14:59:48.315Z,14.93
2022-09-11T15:02:34.361Z,13.40
2022-09-11T15:05:00.165Z,14.88
2022-09-11T15:07:27.108Z,14.93
2022-09-11T15:09:54.362Z,14.10
2022-09-11T15:12:21.270Z,13.40
2022-09-11T15:14:58.972Z,13.45
2022-09-11T15:17:30.755Z,12.82
2022-09-11T15:19:59.540Z,14.48
2022-09-11T15:22:25.622Z,13.93
2022-09-11T15:24:51.722Z,12.93
2022-09-11T15:27:18.501Z,13.05
2022-09-11T15:29:44.956Z,14.00
2022-09-11T15:32:11.093Z,14.63
2022-09-11T15:34:38.652Z,16.02
2022-09-11T15:37:04.949Z,16.70
2022-09-11T15:39:30.990Z,14.80
2022-09-11T15:41:57.091Z,14.98
2022-09-11T15:44:25.420Z,15.30
2022-09-11T15:46:52.849Z,14.77
2022-09-11T15:49:21.038Z,14.93
2022-09-11T15:51:48.070Z,15.25
2022-09-11T15:54:15.038Z,15.68
2022-09-11T15:56:42.375Z,13.30
2022-09-11T15:59:10.637Z,14.90
2022-09-11T16:01:36.769Z,14.20
2022-09-11T16:04:08.544Z,14.50
2022-09-11T16:06:38.208Z,14.38
2022-09-11T16:09:07.717Z,15.43
2022-09-11T16:11:35.659Z,14.77
2022-09-11T16:14:02.201Z,13.60
2022-09-11T16:16:28.282Z,14.15
2022-09-11T16:18:54.191Z,13.45
2022-09-11T16:21:22.430Z,14.63
2022-09-11T16:23:53.562Z,15.43
2022-09-11T16:26:26.298Z,13.85
2022-09-11T16:28:52.529Z,14.25
2022-09-11T16:31:19.381Z,14.02
2022-09-11T16:33:49.065Z,14.57
2022-09-11T16:36:20.141Z,15.07
2022-09-11T16:38:49.227Z,15.35
2022-09-11T16:41:20.091Z,16.23
2022-09-11T16:43:48.941Z,15.55
2022-09-11T16:46:23.584Z,14.10
2022-09-11T16:48:53.947Z,14.35
2022-09-11T16:51:20.559Z,14.52
2022-09-11T16:53:46.946Z,14.27
2022-09-11T16:56:16.041Z,15.57
2022-09-11T16:58:42.794Z,14.32
2022-09-11T17:01:14.177Z,14.55
2022-09-11T17:03:41.765Z,14.20
2022-09-11T17:06:08.136Z,13.02
2022-09-11T17:08:35.985Z,13.30
2022-09-11T17:11:03.703Z,13.60
2022-09-11T17:13:29.637Z,13.15
2022-09-11T17:16:04.034Z,13.10
2022-09-11T17:18:30.310Z,12.40
2022-09-11T17:20:58.119Z,13.02
2022-09-11T17:23:27.073Z,12.52
2022-09-11T17:25:52.968Z,12.75
2022-09-11T17:28:19.458Z,12.32
2022-09-11T17:30:46.185Z,13.10
2022-09-11T17:33:15.616Z,14.43
2022-09-11T17:35:42.194Z,13.38
2022-09-11T17:38:08.892Z,13.50
2022-09-11T17:40:35.131Z,13.07
2022-09-11T17:43:02.050Z,13.85
2022-09-11T17:45:28.254Z,14.32
2022-09-11T17:47:54.951Z,12.35
2022-09-11T17:50:20.762Z,13.55
2022-09-11T17:52:46.635Z,15.02
2022-09-11T17:55:12.520Z,17.73
2022-09-11T17:57:39.976Z,15.38
2022-09-11T18:00:06.387Z,15.60
2022-09-11T18:02:32.297Z,14.88
2022-09-11T18:04:58.171Z,14.85
2022-09-11T18:07:24.084Z,14.77
2022-09-11T18:09:55.623Z,14.65
2022-09-11T18:12:22.194Z,14.98
2022-09-11T18:14:48.030Z,14.18
2022-09-11T18:17:13.955Z,13.90
2022-09-11T18:19:39.971Z,14.55
2022-09-11T18:22:06.274Z,14.70
2022-09-11T18:24:32.619Z,13.82
2022-09-11T18:27:01.368Z,14.90
2022-09-11T18:29:27.496Z,13.30
2022-09-11T18:31:53.747Z,13.23
2022-09-11T18:34:25.281Z,14.32
2022-09-11T18:36:51.766Z,14.40
2022-09-11T18:39:18.674Z,14.77
2022-09-11T18:41:46.237Z,14.38
2022-09-11T18:44:19.606Z,14.00
2022-09-11T18:46:46.193Z,14.95
2022-09-11T18:49:15.962Z,16.00
2022-09-11T18:51:42.579Z,17.98
2022-09-11T18:54:17.004Z,15.77
2022-09-11T18:56:46.259Z,14.65
2022-09-11T18:59:12.782Z,15.43
2022-09-11T19:01:39.236Z,15.35
2022-09-11T19:04:07.498Z,15.65
2022-09-11T19:06:33.730Z,14.50
2022-09-11T19:09:00.269Z,14.60
2022-09-11T19:11:29.257Z,13.93
2022-09-11T19:14:01.305Z,14.65
2022-09-11T19:16:27.210Z,14.50
2022-09-11T19:18:53.209Z,13.85
2022-09-11T19:21:23.232Z,14.63
2022-09-11T19:23:54.902Z,13.65
2022-09-11T19:26:39.240Z,14.77
2022-09-11T19:29:07.800Z,14.48
2022-09-11T19:31:34.168Z,14.75
2022-09-11T19:34:01.165Z,14.43
2022-09-11T19:36:29.368Z,14.45
2022-09-11T19:39:00.338Z,15.65
2022-09-11T19:41:29.519Z,13.93
2022-09-11T19:44:00.282Z,13.93
2022-09-11T19:46:28.028Z,14.32
2022-09-11T19:49:00.495Z,13.50
2022-09-11T19:51:29.124Z,13.80
2022-09-11T19:53:56.963Z,13.15
2022-09-11T19:56:23.970Z,14.00
2022-09-11T19:58:50.614Z,14.57
2022-09-11T20:01:21.889Z,13.85
2022-09-11T20:03:49.103Z,13.20
2022-09-11T20:06:17.302Z,11.80
2022-09-11T20:08:45.599Z,12.23
2022-09-11T20:11:17.031Z,12.23
2022-09-11T20:13:43.227Z,12.00
2022-09-11T20:16:14.270Z,10.25
2022-09-11T20:18:43.590Z,10.23
2022-09-11T20:21:12.047Z,10.23
2022-09-11T20:23:41.286Z,9.98
2022-09-11T20:26:17.273Z,9.98
2022-09-11T20:28:44.581Z,10.55
2022-09-11T20:31:22.181Z,10.40
2022-09-11T20:33:51.463Z,10.00
2022-09-11T20:36:18.258Z,9.88
2022-09-11T20:38:48.461Z,10.07
2022-09-11T20:41:14.314Z,9.82
2022-09-11T20:43:41.369Z,10.23
2022-09-11T20:46:11.065Z,10.68
2022-09-11T20:48:37.020Z,10.43
2022-09-11T20:51:07.974Z,12.95
2022-09-11T20:53:34.498Z,14.93
2022-09-11T20:56:11.325Z,15.48
2022-09-11T20:58:37.997Z,17.58
2022-09-11T21:01:05.047Z,16.05
2022-09-11T21:03:31.664Z,14.43
2022-09-11T21:06:04.218Z,15.55
2022-09-11T21:08:30.030Z,14.98
2022-09-11T21:11:01.116Z,14.82
2022-09-11T21:13:26.908Z,14.77
2022-09-11T21:15:52.782Z,13.90
2022-09-11T21:18:18.650Z,14.18
2022-09-11T21:20:54.174Z,12.32
2022-09-11T21:23:20.210Z,11.13
2022-09-11T21:25:48.616Z,11.63
2022-09-11T21:28:17.894Z,11.13
2022-09-11T21:30:43.815Z,10.50
2022-09-11T21:33:09.625Z,11.60
2022-09-11T21:35:36.627Z,11.38
2022-09-11T21:38:03.023Z,12.63
2022-09-11T21:40:29.252Z,13.73
2022-09-11T21:42:55.030Z,13.48
2022-09-11T21:45:20.907Z,12.18
2022-09-11T21:47:46.735Z,12.35
2022-09-11T21:50:12.646Z,12.68
2022-09-11T21:52:38.624Z,11.63
2022-09-11T21:55:05.050Z,11.63
2022-09-11T21:57:30.895Z,11.68
2022-09-11T21:59:57.915Z,12.52
2022-09-11T22:02:24.694Z,10.73
2022-09-11T22:04:51.446Z,11.70
2022-09-11T22:07:18.608Z,11.43
2022-09-11T22:09:44.748Z,11.23
2022-09-11T22:12:10.585Z,10.43
2022-09-11T22:14:36.571Z,10.80
2022-09-11T22:17:02.435Z,11.90
2022-09-11T22:19:28.342Z,10.23
2022-09-11T22:21:54.250Z,11.10
2022-09-11T22:24:20.319Z,9.20
2022-09-11T22:26:46.180Z,9.85
2022-09-11T22:29:12.354Z,9.82
2022-09-11T22:31:38.834Z,9.10
2022-09-11T22:34:04.978Z,9.75
2022-09-11T22:36:31.604Z,8.90
2022-09-11T22:38:58.322Z,8.77
2022-09-11T22:41:25.419Z,8.15
2022-09-11T22:43:51.549Z,6.80
2022-09-11T22:46:19.984Z,7.60
2022-09-11T22:48:46.163Z,7.53
2022-09-11T22:51:12.294Z,7.30
2022-09-11T22:53:41.449Z,7.07
2022-09-11T22:56:08.653Z,7.38
2022-09-11T22:58:34.819Z,6.82
2022-09-11T23:01:02.907Z,7.10
2022-09-11T23:03:29.142Z,7.38
2022-09-11T23:06:17.923Z,6.70
2022-09-11T23:08:46.079Z,7.00
2022-09-11T23:11:16.392Z,7.18
2022-09-11T23:13:43.333Z,7.68
2022-09-11T23:16:15.458Z,7.40
2022-09-11T23:18:42.149Z,6.63
2022-09-11T23:21:08.322Z,6.78
2022-09-11T23:23:40.103Z,6.15
2022-09-11T23:26:07.184Z,6.80
2022-09-11T23:28:34.058Z,5.90
2022-09-11T23:31:01.204Z,6.32
2022-09-11T23:33:28.019Z,6.10
2022-09-11T23:35:54.143Z,6.15
2022-09-11T23:38:20.402Z,6.57
2022-09-11T23:40:46.387Z,6.45
2022-09-11T23:43:12.238Z,6.60
2022-09-11T23:45:38.067Z,7.13
2022-09-11T23:48:03.988Z,5.70
2022-09-11T23:50:29.760Z,6.20
2022-09-11T23:52:55.595Z,6.93
2022-09-11T23:55:21.392Z,6.50
2022-09-11T23:57:47.418Z,6.07
